createdAt,value
2023-04-07T00:00:31.328Z,101488.16
2023-04-07T00:02:59.661Z,101486.44
2023-04-07T00:05:27.547Z,101484.69
2023-04-07T00:07:56.802Z,101481.22
2023-04-07T00:10:25.399Z,101485.03
2023-04-07T00:12:53.250Z,101485.78
2023-04-07T00:15:21.068Z,101489.59
2023-04-07T00:17:50.505Z,101486.75
2023-04-07T00:20:18.472Z,101480.69
2023-04-07T00:22:46.302Z,101494.34
2023-04-07T00:25:14.089Z,101496.72
2023-04-07T00:27:41.834Z,101498.34
2023-04-07T00:30:10.150Z,101499.19
2023-04-07T00:32:37.906Z,101496.50
2023-04-07T00:35:07.914Z,101495.41
2023-04-07T00:37:35.673Z,101495.41
2023-04-07T00:40:04.183Z,101490.09
2023-04-07T00:42:31.948Z,101490.22
2023-04-07T00:44:59.664Z,101495.97
2023-04-07T00:47:27.641Z,101494.16
2023-04-07T00:49:55.368Z,101486.63
2023-04-07T00:52:30.028Z,101493.06
2023-04-07T00:54:57.775Z,101497.38
2023-04-07T00:57:25.516Z,101496.72
2023-04-07T00:59:54.418Z,101494.47
2023-04-07T01:02:28.334Z,101488.94
2023-04-07T01:05:05.581Z,101492.63
2023-04-07T01:07:41.227Z,101493.50
2023-04-07T01:10:13.445Z,101496.53
2023-04-07T01:12:48.767Z,101493.94
2023-04-07T01:15:19.752Z,101494.47
2023-04-07T01:17:51.718Z,101501.38
2023-04-07T01:20:22.671Z,101495.84
2023-04-07T01:22:55.896Z,101496.28
2023-04-07T01:25:33.919Z,101496.66
2023-04-07T01:28:32.664Z,101498.72
2023-04-07T01:31:04.720Z,101506.59
2023-04-07T01:33:36.657Z,101511.16
2023-04-07T01:36:07.706Z,101522.41
2023-04-07T01:38:36.762Z,101513.63
2023-04-07T01:41:05.573Z,101506.69
2023-04-07T01:43:33.921Z,101517.75
2023-04-07T01:46:04.930Z,101512.22
2023-04-07T01:48:33.444Z,101521.31
2023-04-07T01:51:02.003Z,101518.91
2023-04-07T01:53:30.997Z,101518.06
2023-04-07T01:55:58.735Z,101519.03
2023-04-07T01:58:27.214Z,101514.84
2023-04-07T02:00:55.031Z,101516.66
2023-04-07T02:03:29.097Z,101515.56
2023-04-07T02:06:01.279Z,101517.44
2023-04-07T02:08:32.351Z,101514.91
2023-04-07T02:11:03.743Z,101522.84
2023-04-07T02:13:32.104Z,101515.78
2023-04-07T02:16:01.596Z,101514.91
2023-04-07T02:18:32.887Z,101516.34
2023-04-07T02:21:02.363Z,101514.50
2023-04-07T02:23:30.352Z,101519.47
2023-04-07T02:25:58.982Z,101514.06
2023-04-07T02:28:26.772Z,101519.25
2023-04-07T02:30:54.497Z,101514.81
2023-04-07T02:33:22.251Z,101523.03
2023-04-07T02:35:51.503Z,101524.13
2023-04-07T02:38:19.275Z,101516.78
2023-04-07T02:40:46.988Z,101516.66
2023-04-07T02:43:15.554Z,101509.50
2023-04-07T02:45:43.267Z,101513.19
2023-04-07T02:48:11.088Z,101511.25
2023-04-07T02:50:38.874Z,101508.22
2023-04-07T02:53:07.967Z,101517.31
2023-04-07T02:55:35.674Z,101511.69
2023-04-07T02:58:03.388Z,101511.34
2023-04-07T03:00:31.255Z,101513.06
2023-04-07T03:02:59.000Z,101515.25
2023-04-07T03:05:27.170Z,101519.69
2023-04-07T03:07:54.911Z,101512.72
2023-04-07T03:10:24.054Z,101519.69
2023-04-07T03:12:51.805Z,101515.91
2023-04-07T03:15:19.518Z,101524.75
2023-04-07T03:17:47.278Z,101522.81
2023-04-07T03:20:15.074Z,101527.13
2023-04-07T03:22:42.879Z,101525.94
2023-04-07T03:25:11.315Z,101523.22
2023-04-07T03:27:40.679Z,101522.19
2023-04-07T03:30:10.468Z,101523.88
2023-04-07T03:32:38.208Z,101531.16
2023-04-07T03:35:06.500Z,101527.91
2023-04-07T03:37:34.265Z,101515.53
2023-04-07T03:40:02.032Z,101514.38
2023-04-07T03:42:29.789Z,101519.47
2023-04-07T03:44:58.866Z,101513.19
2023-04-07T03:47:26.707Z,101519.56
2023-04-07T03:49:54.478Z,101519.56
2023-04-07T03:52:22.198Z,101515.78
2023-04-07T03:54:49.928Z,101519.47
2023-04-07T03:57:17.759Z,101514.72
2023-04-07T03:59:47.000Z,101527.47
2023-04-07T04:02:16.444Z,101520.22
2023-04-07T04:04:44.359Z,101522.50
2023-04-07T04:07:12.090Z,101518.47
2023-04-07T04:09:39.993Z,101526.16
2023-04-07T04:12:08.154Z,101531.56
2023-04-07T04:14:36.069Z,101529.50
2023-04-07T04:17:05.526Z,101531.16
2023-04-07T04:19:35.162Z,101538.09
2023-04-07T04:22:02.931Z,101532.66
2023-04-07T04:24:30.643Z,101540.25
2023-04-07T04:26:58.350Z,101537.53
2023-04-07T04:29:26.056Z,101540.91
2023-04-07T04:31:53.852Z,101542.59
2023-04-07T04:34:21.886Z,101546.06
2023-04-07T04:36:51.014Z,101543.25
2023-04-07T04:39:18.851Z,101547.63
2023-04-07T04:41:46.581Z,101548.59
2023-04-07T04:44:14.355Z,101542.22
2023-04-07T04:46:42.191Z,101543.06
2023-04-07T04:49:10.003Z,101553.03
2023-04-07T04:51:37.772Z,101559.28
2023-04-07T04:54:07.332Z,101556.25
2023-04-07T04:56:35.277Z,101554.19
2023-04-07T04:59:03.982Z,101562.41
2023-04-07T05:01:33.495Z,101560.38
2023-04-07T05:04:01.786Z,101559.59
2023-04-07T05:06:29.596Z,101564.34
2023-04-07T05:08:57.358Z,101566.94
2023-04-07T05:11:26.664Z,101567.94
2023-04-07T05:13:54.571Z,101569.56
2023-04-07T05:16:22.725Z,101569.44
2023-04-07T05:18:50.595Z,101575.63
2023-04-07T05:21:20.201Z,101581.03
2023-04-07T05:23:47.975Z,101576.47
2023-04-07T05:26:15.771Z,101575.19
2023-04-07T05:28:44.945Z,101581.47
2023-04-07T05:31:12.715Z,101580.38
2023-04-07T05:33:40.540Z,101580.06
2023-04-07T05:36:08.895Z,101578.31
2023-04-07T05:38:36.693Z,101582.66
2023-04-07T05:41:04.468Z,101582.44
2023-04-07T05:43:32.275Z,101588.50
2023-04-07T05:46:01.477Z,101590.25
2023-04-07T05:48:29.669Z,101595.66
2023-04-07T05:50:57.506Z,101596.19
2023-04-07T05:53:25.455Z,101598.00
2023-04-07T05:55:53.259Z,101605.81
2023-04-07T05:58:21.094Z,101606.69
2023-04-07T06:00:48.864Z,101614.81
2023-04-07T06:03:18.411Z,101601.59
2023-04-07T06:05:47.238Z,101603.44
2023-04-07T06:08:15.135Z,101606.03
2023-04-07T06:10:44.230Z,101608.63
2023-04-07T06:13:12.002Z,101608.53
2023-04-07T06:15:39.734Z,101609.50
2023-04-07T06:18:07.634Z,101613.28
2023-04-07T06:20:36.825Z,101608.94
2023-04-07T06:23:04.594Z,101609.19
2023-04-07T06:25:32.348Z,101610.56
2023-04-07T06:28:00.171Z,101608.84
2023-04-07T06:30:28.010Z,101619.91
2023-04-07T06:32:55.914Z,101612.09
2023-04-07T06:35:26.699Z,101611.88
2023-04-07T06:37:55.832Z,101613.94
2023-04-07T06:40:23.646Z,101620.97
2023-04-07T06:42:51.707Z,101622.06
2023-04-07T06:45:19.472Z,101618.38
2023-04-07T06:47:47.286Z,101626.81
2023-04-07T06:50:15.050Z,101625.50
2023-04-07T06:52:43.189Z,101629.00
2023-04-07T06:55:12.531Z,101625.19
2023-04-07T06:57:40.295Z,101631.47
2023-04-07T07:00:09.324Z,101625.06
2023-04-07T07:02:37.222Z,101633.72
2023-04-07T07:05:05.822Z,101641.19
2023-04-07T07:07:33.568Z,101654.41
2023-04-07T07:10:01.379Z,101651.59
2023-04-07T07:12:30.534Z,101644.75
2023-04-07T07:14:58.318Z,101650.19
2023-04-07T07:17:26.090Z,101665.34
2023-04-07T07:19:53.881Z,101664.03
2023-04-07T07:22:21.691Z,101664.94
2023-04-07T07:24:49.447Z,101652.34
2023-04-07T07:27:17.210Z,101671.84
2023-04-07T07:29:46.333Z,101674.88
2023-04-07T07:32:14.085Z,101677.38
2023-04-07T07:34:41.951Z,101675.06
2023-04-07T07:37:09.725Z,101685.69
2023-04-07T07:39:37.521Z,101684.09
2023-04-07T07:42:05.269Z,101692.00
2023-04-07T07:44:32.992Z,101691.66
2023-04-07T07:47:02.359Z,101699.03
2023-04-07T07:49:30.260Z,101698.38
2023-04-07T07:51:59.678Z,101699.47
2023-04-07T07:54:27.582Z,101698.38
2023-04-07T07:56:55.313Z,101698.72
2023-04-07T07:59:23.154Z,101703.94
2023-04-07T08:01:51.071Z,101704.22
2023-04-07T08:04:20.882Z,101696.09
2023-04-07T08:06:48.722Z,101695.03
2023-04-07T08:09:16.506Z,101702.50
2023-04-07T08:11:44.413Z,101703.47
2023-04-07T08:14:12.276Z,101704.13
2023-04-07T08:16:40.115Z,101711.94
2023-04-07T08:19:07.959Z,101711.84
2023-04-07T08:21:37.517Z,101722.38
2023-04-07T08:24:05.642Z,101721.38
2023-04-07T08:26:33.882Z,101725.41
2023-04-07T08:29:01.619Z,101726.03
2023-04-07T08:31:29.608Z,101724.97
2023-04-07T08:33:59.037Z,101726.47
2023-04-07T08:36:28.024Z,101733.63
2023-04-07T08:38:58.632Z,101741.75
2023-04-07T08:41:34.572Z,101742.19
2023-04-07T08:44:02.871Z,101736.13
2023-04-07T08:46:31.723Z,101742.50
2023-04-07T08:49:00.300Z,101743.59
2023-04-07T08:51:30.079Z,101734.38
2023-04-07T08:54:07.371Z,101742.28
2023-04-07T08:56:35.526Z,101756.25
2023-04-07T08:59:03.676Z,101750.28
2023-04-07T09:01:32.237Z,101747.25
2023-04-07T09:04:01.035Z,101747.69
2023-04-07T09:06:29.002Z,101753.22
2023-04-07T09:08:56.765Z,101755.06
2023-04-07T09:11:27.294Z,101761.97
2023-04-07T09:13:56.080Z,101763.38
2023-04-07T09:16:24.923Z,101756.88
2023-04-07T09:18:54.090Z,101759.25
2023-04-07T09:21:21.876Z,101760.22
2023-04-07T09:23:49.916Z,101760.69
2023-04-07T09:26:24.458Z,101759.59
2023-04-07T09:28:55.778Z,101768.69
2023-04-07T09:31:26.313Z,101759.59
2023-04-07T09:33:54.451Z,101754.16
2023-04-07T09:36:22.227Z,101763.47
2023-04-07T09:38:50.017Z,101766.75
2023-04-07T09:41:18.319Z,101766.75
2023-04-07T09:43:48.386Z,101768.03
2023-04-07T09:46:19.049Z,101768.44
2023-04-07T09:48:48.581Z,101769.84
2023-04-07T09:51:18.406Z,101763.78
2023-04-07T09:53:48.728Z,101775.59
2023-04-07T09:56:18.012Z,101772.97
2023-04-07T09:58:47.910Z,101777.53
2023-04-07T10:01:18.152Z,101773.97
2023-04-07T10:03:48.129Z,101769.28
2023-04-07T10:06:16.955Z,101768.84
2023-04-07T10:08:45.126Z,101762.88
2023-04-07T10:11:12.840Z,101771.06
2023-04-07T10:13:41.461Z,101769.84
2023-04-07T10:16:09.727Z,101776.00
2023-04-07T10:18:40.935Z,101778.69
2023-04-07T10:21:10.724Z,101777.41
2023-04-07T10:23:50.323Z,101778.81
2023-04-07T10:26:20.896Z,101777.53
2023-04-07T10:28:54.767Z,101786.63
2023-04-07T10:31:24.041Z,101795.44
2023-04-07T10:33:56.404Z,101791.53
2023-04-07T10:36:24.373Z,101790.50
2023-04-07T10:39:24.128Z,101791.47
2023-04-07T10:41:53.255Z,101791.28
2023-04-07T10:44:46.682Z,101797.94
2023-04-07T10:47:14.640Z,101797.41
2023-04-07T10:50:16.723Z,101799.00
2023-04-07T10:52:44.670Z,101794.88
2023-04-07T10:55:32.774Z,101797.56
2023-04-07T10:58:23.141Z,101803.78
2023-04-07T11:01:20.735Z,101803.91
2023-04-07T11:04:01.558Z,101797.59
2023-04-07T11:06:31.489Z,101807.94
2023-04-07T11:08:59.262Z,101809.56
2023-04-07T11:11:39.477Z,101806.50
2023-04-07T11:14:07.844Z,101816.56
2023-04-07T11:16:43.346Z,101813.44
2023-04-07T11:19:11.364Z,101824.28
2023-04-07T11:21:40.689Z,101815.41
2023-04-07T11:24:08.465Z,101818.84
2023-04-07T11:26:40.766Z,101817.88
2023-04-07T11:29:09.083Z,101820.38
2023-04-07T11:31:37.970Z,101815.41
2023-04-07T11:34:06.779Z,101818.69
2023-04-07T11:36:39.083Z,101817.25
2023-04-07T11:39:19.915Z,101822.91
2023-04-07T11:41:49.077Z,101834.41
2023-04-07T11:44:16.845Z,101825.91
2023-04-07T11:46:54.665Z,101835.50
2023-04-07T11:49:23.615Z,101837.25
2023-04-07T11:51:59.281Z,101835.31
2023-04-07T11:54:28.439Z,101843.28
2023-04-07T11:56:56.254Z,101838.09
2023-04-07T11:59:25.369Z,101837.97
2023-04-07T12:01:56.990Z,101852.63
2023-04-07T12:04:25.657Z,101844.03
2023-04-07T12:06:53.599Z,101844.97
2023-04-07T12:09:36.185Z,101847.50
2023-04-07T12:12:05.735Z,101859.16
2023-04-07T12:14:33.921Z,101863.25
2023-04-07T12:17:03.661Z,101863.38
2023-04-07T12:19:34.871Z,101854.50
2023-04-07T12:22:02.650Z,101862.38
2023-04-07T12:24:32.287Z,101858.81
2023-04-07T12:27:02.455Z,101862.00
2023-04-07T12:29:30.290Z,101870.34
2023-04-07T12:31:58.582Z,101871.88
2023-04-07T12:34:27.183Z,101870.91
2023-04-07T12:36:55.061Z,101872.28
2023-04-07T12:39:23.024Z,101876.81
2023-04-07T12:41:53.170Z,101870.50
2023-04-07T12:44:22.420Z,101876.34
2023-04-07T12:46:50.197Z,101881.44
2023-04-07T12:49:17.983Z,101881.09
2023-04-07T12:51:46.028Z,101874.97
2023-04-07T12:54:13.761Z,101880.50
2023-04-07T12:56:42.254Z,101873.34
2023-04-07T12:59:10.001Z,101877.78
2023-04-07T13:01:39.545Z,101882.75
2023-04-07T13:04:07.761Z,101884.06
2023-04-07T13:06:35.698Z,101887.69
2023-04-07T13:09:03.759Z,101887.81
2023-04-07T13:11:31.504Z,101884.97
2023-04-07T13:14:01.112Z,101885.81
2023-04-07T13:16:29.504Z,101886.91
2023-04-07T13:18:58.678Z,101901.19
2023-04-07T13:21:45.417Z,101888.34
2023-04-07T13:24:15.044Z,101892.94
2023-04-07T13:26:42.865Z,101897.84
2023-04-07T13:29:10.669Z,101889.31
2023-04-07T13:31:38.432Z,101899.53
2023-04-07T13:34:07.695Z,101893.03
2023-04-07T13:36:35.446Z,101892.03
2023-04-07T13:39:03.389Z,101891.81
2023-04-07T13:41:31.751Z,101901.19
2023-04-07T13:43:59.550Z,101894.09
2023-04-07T13:46:29.160Z,101903.34
2023-04-07T13:48:57.309Z,101903.78
2023-04-07T13:51:27.505Z,101902.81
2023-04-07T13:53:55.251Z,101906.50
2023-04-07T13:56:23.805Z,101903.78
2023-04-07T13:58:51.810Z,101902.25
2023-04-07T14:01:19.648Z,101909.09
2023-04-07T14:03:47.876Z,101902.56
2023-04-07T14:06:16.270Z,101906.06
2023-04-07T14:08:45.374Z,101905.22
2023-04-07T14:11:13.072Z,101908.56
2023-04-07T14:13:40.815Z,101905.41
2023-04-07T14:16:09.360Z,101905.22
2023-04-07T14:18:37.213Z,101905.22
2023-04-07T14:21:05.270Z,101906.44
2023-04-07T14:23:37.166Z,101910.63
2023-04-07T14:26:10.438Z,101908.03
2023-04-07T14:28:38.252Z,101907.03
2023-04-07T14:31:06.225Z,101899.03
2023-04-07T14:33:34.073Z,101908.91
2023-04-07T14:36:02.007Z,101915.63
2023-04-07T14:38:29.789Z,101910.94
2023-04-07T14:41:09.510Z,101909.88
2023-04-07T14:43:39.762Z,101911.16
2023-04-07T14:46:08.701Z,101915.50
2023-04-07T14:48:36.645Z,101916.66
2023-04-07T14:51:09.830Z,101917.69
2023-04-07T14:53:37.855Z,101916.28
2023-04-07T14:56:05.912Z,101918.53
2023-04-07T14:58:33.779Z,101917.22
2023-04-07T15:01:05.629Z,101919.09
2023-04-07T15:03:34.826Z,101930.03
2023-04-07T15:06:02.856Z,101919.13
2023-04-07T15:08:30.659Z,101928.66
2023-04-07T15:10:58.841Z,101932.47
2023-04-07T15:13:26.543Z,101936.28
2023-04-07T15:15:54.311Z,101936.16
2023-04-07T15:18:23.518Z,101926.28
2023-04-07T15:20:51.379Z,101929.75
2023-04-07T15:23:19.127Z,101931.06
2023-04-07T15:25:50.098Z,101931.72
2023-04-07T15:28:17.827Z,101932.91
2023-04-07T15:30:47.339Z,101930.59
2023-04-07T15:33:15.705Z,101929.75
2023-04-07T15:35:45.575Z,101933.97
2023-04-07T15:38:13.424Z,101936.69
2023-04-07T15:40:42.648Z,101935.47
2023-04-07T15:43:11.519Z,101930.94
2023-04-07T15:45:43.434Z,101929.94
2023-04-07T15:48:11.830Z,101930.03
2023-04-07T15:50:39.736Z,101937.66
2023-04-07T15:53:08.960Z,101938.44
2023-04-07T15:55:37.589Z,101946.44
2023-04-07T15:58:05.631Z,101942.31
2023-04-07T16:00:35.655Z,101949.72
2023-04-07T16:03:04.026Z,101943.41
2023-04-07T16:05:32.336Z,101950.06
2023-04-07T16:08:00.196Z,101953.22
2023-04-07T16:10:29.277Z,101951.28
2023-04-07T16:12:57.098Z,101944.97
2023-04-07T16:15:36.846Z,101951.72
2023-04-07T16:18:08.386Z,101954.31
2023-04-07T16:20:36.191Z,101951.59
2023-04-07T16:23:04.047Z,101953.97
2023-04-07T16:25:33.307Z,101962.53
2023-04-07T16:28:01.081Z,101955.69
2023-04-07T16:30:28.835Z,101958.97
2023-04-07T16:32:56.625Z,101961.69
2023-04-07T16:35:24.391Z,101966.25
2023-04-07T16:37:54.720Z,101969.81
2023-04-07T16:40:22.540Z,101964.50
2023-04-07T16:42:51.660Z,101969.81
2023-04-07T16:45:19.507Z,101964.28
2023-04-07T16:47:47.275Z,101979.06
2023-04-07T16:50:15.211Z,101965.72
2023-04-07T16:52:42.965Z,101978.41
2023-04-07T16:55:10.892Z,101980.13
2023-04-07T16:57:38.624Z,101989.56
2023-04-07T17:00:10.874Z,101982.09
2023-04-07T17:02:38.920Z,101993.19
2023-04-07T17:05:07.878Z,101993.50
2023-04-07T17:07:35.688Z,101994.91
2023-04-07T17:10:03.911Z,102000.88
2023-04-07T17:12:31.756Z,102003.06
2023-04-07T17:14:59.500Z,102001.75
2023-04-07T17:17:28.695Z,102000.97
2023-04-07T17:19:57.636Z,102007.16
2023-04-07T17:22:25.390Z,102011.50
2023-04-07T17:24:53.186Z,102013.34
2023-04-07T17:27:20.937Z,102018.88
2023-04-07T17:29:48.682Z,102017.81
2023-04-07T17:32:16.406Z,102023.88
2023-04-07T17:34:45.530Z,102021.81
2023-04-07T17:37:13.270Z,102028.00
2023-04-07T17:39:41.023Z,102025.16
2023-04-07T17:42:10.878Z,102024.31
2023-04-07T17:44:38.617Z,102031.56
2023-04-07T17:47:07.780Z,102031.56
2023-04-07T17:49:35.560Z,102041.63
2023-04-07T17:52:04.668Z,102046.09
2023-04-07T17:54:32.451Z,102044.47
2023-04-07T17:57:01.019Z,102043.88
2023-04-07T17:59:28.823Z,102048.03
2023-04-07T18:01:56.928Z,102056.28
2023-04-07T18:04:26.252Z,102052.91
2023-04-07T18:06:54.654Z,102055.72
2023-04-07T18:09:23.791Z,102047.91
2023-04-07T18:11:51.576Z,102055.78
2023-04-07T18:14:19.335Z,102058.38
2023-04-07T18:16:47.073Z,102070.41
2023-04-07T18:19:14.874Z,102065.75
2023-04-07T18:21:42.727Z,102074.75
2023-04-07T18:24:10.477Z,102078.13
2023-04-07T18:26:39.634Z,102074.03
2023-04-07T18:29:10.039Z,102080.19
2023-04-07T18:31:38.187Z,102078.28
2023-04-07T18:34:06.102Z,102092.38
2023-04-07T18:40:14.628Z,102093.34
2023-04-07T18:42:43.738Z,102094.22
2023-04-07T18:45:11.895Z,102095.09
2023-04-07T18:47:39.682Z,102099.75
2023-04-07T18:50:08.578Z,102103.53
2023-04-07T18:52:36.401Z,102108.19
2023-04-07T18:55:04.427Z,102108.09
2023-04-07T18:57:32.267Z,102111.78
2023-04-07T19:00:01.434Z,102126.50
2023-04-07T19:02:29.271Z,102129.22
2023-04-07T19:04:57.121Z,102128.81
2023-04-07T19:07:24.974Z,102131.72
2023-04-07T19:09:53.833Z,102134.75
2023-04-07T19:12:22.283Z,102138.44
2023-04-07T19:14:50.047Z,102138.31
2023-04-07T19:17:19.211Z,102145.59
2023-04-07T19:19:47.074Z,102144.59
2023-04-07T19:22:14.771Z,102144.41
2023-04-07T19:24:42.573Z,102149.94
2023-04-07T19:27:12.087Z,102145.59
2023-04-07T19:29:39.784Z,102146.00
2023-04-07T19:32:07.763Z,102145.00
2023-04-07T19:34:36.965Z,102143.31
2023-04-07T19:37:04.756Z,102138.19
2023-04-07T19:39:32.530Z,102142.72
2023-04-07T19:42:01.063Z,102152.69
2023-04-07T19:44:28.854Z,102149.88
2023-04-07T19:46:56.603Z,102153.56
2023-04-07T19:49:24.415Z,102149.88
2023-04-07T19:51:54.490Z,102151.50
2023-04-07T19:54:22.898Z,102156.19
2023-04-07T19:56:50.618Z,102155.41
2023-04-07T19:59:18.391Z,102155.59
2023-04-07T20:01:46.382Z,102159.06
2023-04-07T20:04:14.216Z,102157.16
2023-04-07T20:06:42.012Z,102158.91
2023-04-07T20:09:11.418Z,102161.59
2023-04-07T20:11:39.240Z,102162.47
2023-04-07T20:14:07.014Z,102167.78
2023-04-07T20:16:34.898Z,102168.34
2023-04-07T20:19:04.108Z,102158.56
2023-04-07T20:21:33.379Z,102173.97
2023-04-07T20:24:01.356Z,102168.56
2023-04-07T20:26:30.637Z,102173.19
2023-04-07T20:28:58.422Z,102173.31
2023-04-07T20:31:26.257Z,102182.22
2023-04-07T20:33:54.053Z,102177.66
2023-04-07T20:36:21.910Z,102178.44
2023-04-07T20:38:49.940Z,102183.06
2023-04-07T20:41:18.079Z,102193.13
2023-04-07T20:43:47.279Z,102182.41
2023-04-07T20:46:15.134Z,102186.06
2023-04-07T20:48:43.171Z,102176.31
2023-04-07T20:51:11.098Z,102178.91
2023-04-07T20:53:38.847Z,102186.47
2023-04-07T20:56:06.885Z,102173.16
2023-04-07T20:58:34.730Z,102174.78
2023-04-07T21:01:04.010Z,102179.25
2023-04-07T21:03:31.914Z,102183.03
2023-04-07T21:05:59.853Z,102176.72
2023-04-07T21:08:27.840Z,102177.69
2023-04-07T21:10:55.869Z,102192.97
2023-04-07T21:13:25.945Z,102189.28
2023-04-07T21:15:53.918Z,102196.66
2023-04-07T21:18:23.083Z,102191.03
2023-04-07T21:20:50.934Z,102187.44
2023-04-07T21:23:19.516Z,102195.50
2023-04-07T21:25:47.558Z,102199.94
2023-04-07T21:28:15.700Z,102206.91
2023-04-07T21:30:43.638Z,102204.31
2023-04-07T21:33:12.391Z,102202.34
2023-04-07T21:35:41.704Z,102205.06
2023-04-07T21:38:09.494Z,102199.56
2023-04-07T21:40:37.255Z,102199.56
2023-04-07T21:43:05.028Z,102203.41
2023-04-07T21:45:32.836Z,102208.72
2023-04-07T21:48:00.590Z,102212.31
2023-04-07T21:50:28.373Z,102198.22
2023-04-07T21:52:57.486Z,102208.09
2023-04-07T21:55:25.293Z,102205.56
2023-04-07T21:57:53.120Z,102208.25
2023-04-07T22:00:21.756Z,102209.34
2023-04-07T22:02:49.890Z,102209.34
2023-04-07T22:05:18.075Z,102207.59
2023-04-07T22:07:46.814Z,102218.44
2023-04-07T22:10:16.063Z,102209.34
2023-04-07T22:12:43.846Z,102218.53
2023-04-07T22:15:13.098Z,102214.75
2023-04-07T22:17:41.391Z,102221.03
2023-04-07T22:20:11.265Z,102218.31
2023-04-07T22:22:39.605Z,102223.97
2023-04-07T22:25:08.008Z,102228.31
2023-04-07T22:27:37.113Z,102229.38
2023-04-07T22:30:05.335Z,102225.72
2023-04-07T22:32:33.108Z,102228.41
2023-04-07T22:35:00.929Z,102235.88
2023-04-07T22:37:28.770Z,102228.59
2023-04-07T22:39:56.502Z,102228.59
2023-04-07T22:42:24.242Z,102228.41
2023-04-07T22:44:53.365Z,102224.63
2023-04-07T22:47:22.344Z,102238.06
2023-04-07T22:49:50.135Z,102232.56
2023-04-07T22:52:17.828Z,102241.75
2023-04-07T22:54:45.910Z,102245.53
2023-04-07T22:57:13.649Z,102243.72
2023-04-07T22:59:41.498Z,102242.81
2023-04-07T23:02:10.757Z,102241.00
2023-04-07T23:04:38.508Z,102247.38
2023-04-07T23:07:06.334Z,102241.97
2023-04-07T23:09:34.214Z,102246.41
2023-04-07T23:12:02.475Z,102250.00
2023-04-07T23:14:30.256Z,102247.47
2023-04-07T23:16:58.061Z,102246.59
2023-04-07T23:19:27.198Z,102255.59
2023-04-07T23:21:54.978Z,102258.41
2023-04-07T23:24:22.674Z,102264.59
2023-04-07T23:26:50.427Z,102260.94
2023-04-07T23:29:18.165Z,102265.41
2023-04-07T23:31:45.912Z,102270.72
2023-04-07T23:34:13.669Z,102265.41
2023-04-07T23:36:42.808Z,102262.75
2023-04-07T23:39:10.566Z,102266.44
2023-04-07T23:41:38.323Z,102270.13
2023-04-07T23:44:06.966Z,102267.50
2023-04-07T23:46:34.852Z,102265.75
2023-04-07T23:49:02.832Z,102265.97
2023-04-07T23:51:30.651Z,102260.53
2023-04-07T23:53:59.865Z,102262.47
2023-04-07T23:56:28.929Z,102254.63
2023-04-07T23:58:56.818Z,102261.78
